sensor_id;sensor_type;location;lat;lon;timestamp;temperature;humidity
14119;DHT22;7138;49.246;9.100;2023-12-22T00:01:29;4.20;99.90
14119;DHT22;7138;49.246;9.100;2023-12-22T00:03:55;4.10;99.90
14119;DHT22;7138;49.246;9.100;2023-12-22T00:06:20;4.10;99.90
14119;DHT22;7138;49.246;9.100;2023-12-22T00:08:46;4.10;99.90
14119;DHT22;7138;49.246;9.100;2023-12-22T00:11:12;4.20;99.90
14119;DHT22;7138;49.246;9.100;2023-12-22T00:13:38;4.20;99.90
14119;DHT22;7138;49.246;9.100;2023-12-22T00:16:04;4.20;99.90
14119;DHT22;7138;49.246;9.100;2023-12-22T00:18:31;4.20;99.90
14119;DHT22;7138;49.246;9.100;2023-12-22T00:20:57;4.30;99.90
14119;DHT22;7138;49.246;9.100;2023-12-22T00:23:23;4.20;99.90
14119;DHT22;7138;49.246;9.100;2023-12-22T00:25:49;4.10;99.90
14119;DHT22;7138;49.246;9.100;2023-12-22T00:28:15;4.10;99.90
14119;DHT22;7138;49.246;9.100;2023-12-22T00:30:41;4.10;99.90
14119;DHT22;7138;49.246;9.100;2023-12-22T00:33:07;4.00;99.90
14119;DHT22;7138;49.246;9.100;2023-12-22T00:35:34;4.00;99.90
14119;DHT22;7138;49.246;9.100;2023-12-22T00:38:01;4.10;99.90
14119;DHT22;7138;49.246;9.100;2023-12-22T00:40:27;4.10;99.90
14119;DHT22;7138;49.246;9.100;2023-12-22T00:42:52;4.20;99.90
14119;DHT22;7138;49.246;9.100;2023-12-22T00:45:18;4.20;99.90
14119;DHT22;7138;49.246;9.100;2023-12-22T00:47:44;4.20;99.90
14119;DHT22;7138;49.246;9.100;2023-12-22T00:50:10;4.20;99.90
14119;DHT22;7138;49.246;9.100;2023-12-22T00:52:37;4.20;99.90
14119;DHT22;7138;49.246;9.100;2023-12-22T00:55:03;4.20;99.90
14119;DHT22;7138;49.246;9.100;2023-12-22T00:57:29;4.10;99.90
14119;DHT22;7138;49.246;9.100;2023-12-22T00:59:55;4.10;99.90
14119;DHT22;7138;49.246;9.100;2023-12-22T01:02:21;4.00;99.90
14119;DHT22;7138;49.246;9.100;2023-12-22T01:04:47;4.00;99.90
14119;DHT22;7138;49.246;9.100;2023-12-22T01:07:13;4.10;99.90
14119;DHT22;7138;49.246;9.100;2023-12-22T01:09:42;4.10;99.90
14119;DHT22;7138;49.246;9.100;2023-12-22T01:12:08;4.10;99.90
14119;DHT22;7138;49.246;9.100;2023-12-22T01:14:36;4.10;99.90
14119;DHT22;7138;49.246;9.100;2023-12-22T01:17:01;4.10;99.90
14119;DHT22;7138;49.246;9.100;2023-12-22T01:19:28;4.10;99.90
14119;DHT22;7138;49.246;9.100;2023-12-22T01:21:53;4.10;99.90
14119;DHT22;7138;49.246;9.100;2023-12-22T01:24:19;4.10;99.90
14119;DHT22;7138;49.246;9.100;2023-12-22T01:26:47;4.10;99.90
14119;DHT22;7138;49.246;9.100;2023-12-22T01:29:13;4.10;99.90
14119;DHT22;7138;49.246;9.100;2023-12-22T01:31:38;4.10;99.90
14119;DHT22;7138;49.246;9.100;2023-12-22T01:34:04;4.10;99.90
14119;DHT22;7138;49.246;9.100;2023-12-22T01:36:30;4.00;99.90
14119;DHT22;7138;49.246;9.100;2023-12-22T01:38:56;4.10;99.90
14119;DHT22;7138;49.246;9.100;2023-12-22T01:41:22;4.10;99.90
14119;DHT22;7138;49.246;9.100;2023-12-22T01:43:49;4.10;99.90
14119;DHT22;7138;49.246;9.100;2023-12-22T01:46:14;4.00;99.90
14119;DHT22;7138;49.246;9.100;2023-12-22T01:48:40;4.10;99.90
14119;DHT22;7138;49.246;9.100;2023-12-22T01:51:07;4.10;99.90
14119;DHT22;7138;49.246;9.100;2023-12-22T01:53:33;4.10;99.90
14119;DHT22;7138;49.246;9.100;2023-12-22T01:56:00;4.10;99.90
14119;DHT22;7138;49.246;9.100;2023-12-22T01:58:29;4.20;99.90
14119;DHT22;7138;49.246;9.100;2023-12-22T02:00:59;4.20;99.90
14119;DHT22;7138;49.246;9.100;2023-12-22T02:03:27;4.30;99.90
14119;DHT22;7138;49.246;9.100;2023-12-22T02:05:53;4.40;99.90
14119;DHT22;7138;49.246;9.100;2023-12-22T02:08:21;4.40;99.90
14119;DHT22;7138;49.246;9.100;2023-12-22T02:10:48;4.50;99.90
14119;DHT22;7138;49.246;9.100;2023-12-22T02:13:14;4.50;99.90
14119;DHT22;7138;49.246;9.100;2023-12-22T02:15:40;4.50;99.90
14119;DHT22;7138;49.246;9.100;2023-12-22T02:18:12;4.70;99.90
14119;DHT22;7138;49.246;9.100;2023-12-22T02:20:42;4.70;99.90
14119;DHT22;7138;49.246;9.100;2023-12-22T02:23:11;4.90;99.90
14119;DHT22;7138;49.246;9.100;2023-12-22T02:25:36;4.90;99.90
14119;DHT22;7138;49.246;9.100;2023-12-22T02:28:05;5.00;99.90
14119;DHT22;7138;49.246;9.100;2023-12-22T02:30:39;5.10;99.90
14119;DHT22;7138;49.246;9.100;2023-12-22T02:33:17;5.30;99.90
14119;DHT22;7138;49.246;9.100;2023-12-22T02:35:44;5.20;99.90
14119;DHT22;7138;49.246;9.100;2023-12-22T02:38:15;5.20;99.90
14119;DHT22;7138;49.246;9.100;2023-12-22T02:40:42;5.20;99.90
14119;DHT22;7138;49.246;9.100;2023-12-22T02:43:09;5.30;99.90
14119;DHT22;7138;49.246;9.100;2023-12-22T02:45:36;5.40;99.90
14119;DHT22;7138;49.246;9.100;2023-12-22T02:48:02;5.50;99.90
14119;DHT22;7138;49.246;9.100;2023-12-22T02:50:29;5.50;99.90
14119;DHT22;7138;49.246;9.100;2023-12-22T02:52:54;5.60;99.90
14119;DHT22;7138;49.246;9.100;2023-12-22T02:55:21;5.70;99.90
14119;DHT22;7138;49.246;9.100;2023-12-22T02:57:47;5.70;99.90
14119;DHT22;7138;49.246;9.100;2023-12-22T03:00:14;5.80;99.90
14119;DHT22;7138;49.246;9.100;2023-12-22T03:02:40;5.90;99.90
14119;DHT22;7138;49.246;9.100;2023-12-22T03:05:06;6.00;99.90
14119;DHT22;7138;49.246;9.100;2023-12-22T03:07:32;5.90;99.90
14119;DHT22;7138;49.246;9.100;2023-12-22T03:09:57;5.70;99.90
14119;DHT22;7138;49.246;9.100;2023-12-22T03:12:25;5.70;99.90
14119;DHT22;7138;49.246;9.100;2023-12-22T03:14:50;5.70;99.90
14119;DHT22;7138;49.246;9.100;2023-12-22T03:17:16;5.70;99.90
14119;DHT22;7138;49.246;9.100;2023-12-22T03:19:42;5.60;99.90
14119;DHT22;7138;49.246;9.100;2023-12-22T03:22:08;5.60;99.90
14119;DHT22;7138;49.246;9.100;2023-12-22T03:24:34;5.70;99.90
14119;DHT22;7138;49.246;9.100;2023-12-22T03:27:00;5.80;99.90
14119;DHT22;7138;49.246;9.100;2023-12-22T03:29:27;6.10;99.90
14119;DHT22;7138;49.246;9.100;2023-12-22T03:31:53;6.10;99.90
14119;DHT22;7138;49.246;9.100;2023-12-22T03:34:19;6.10;99.90
14119;DHT22;7138;49.246;9.100;2023-12-22T03:36:45;6.10;99.90
14119;DHT22;7138;49.246;9.100;2023-12-22T03:39:14;6.00;99.90
14119;DHT22;7138;49.246;9.100;2023-12-22T03:41:40;5.80;99.90
14119;DHT22;7138;49.246;9.100;2023-12-22T03:44:05;5.30;99.90
14119;DHT22;7138;49.246;9.100;2023-12-22T03:46:32;5.10;99.90
14119;DHT22;7138;49.246;9.100;2023-12-22T03:48:58;5.40;99.90
14119;DHT22;7138;49.246;9.100;2023-12-22T03:51:24;5.90;99.90
14119;DHT22;7138;49.246;9.100;2023-12-22T03:53:50;5.50;99.90
14119;DHT22;7138;49.246;9.100;2023-12-22T03:56:16;5.50;99.90
14119;DHT22;7138;49.246;9.100;2023-12-22T03:58:41;5.50;99.90
14119;DHT22;7138;49.246;9.100;2023-12-22T04:01:07;5.50;99.90
14119;DHT22;7138;49.246;9.100;2023-12-22T04:03:34;5.70;99.90
14119;DHT22;7138;49.246;9.100;2023-12-22T04:06:01;5.70;99.90
14119;DHT22;7138;49.246;9.100;2023-12-22T04:08:27;5.70;99.90
14119;DHT22;7138;49.246;9.100;2023-12-22T04:10:53;5.80;99.90
14119;DHT22;7138;49.246;9.100;2023-12-22T04:13:19;5.80;99.90
14119;DHT22;7138;49.246;9.100;2023-12-22T04:15:45;5.90;99.90
14119;DHT22;7138;49.246;9.100;2023-12-22T04:18:11;6.10;99.90
14119;DHT22;7138;49.246;9.100;2023-12-22T04:20:38;6.00;99.90
14119;DHT22;7138;49.246;9.100;2023-12-22T04:23:04;6.10;99.90
14119;DHT22;7138;49.246;9.100;2023-12-22T04:25:30;6.20;99.90
14119;DHT22;7138;49.246;9.100;2023-12-22T04:27:56;6.20;99.90
14119;DHT22;7138;49.246;9.100;2023-12-22T04:30:22;6.30;99.90
14119;DHT22;7138;49.246;9.100;2023-12-22T04:32:48;6.40;99.90
14119;DHT22;7138;49.246;9.100;2023-12-22T04:35:14;6.50;99.90
14119;DHT22;7138;49.246;9.100;2023-12-22T04:37:41;6.40;99.90
14119;DHT22;7138;49.246;9.100;2023-12-22T04:40:07;6.40;99.90
14119;DHT22;7138;49.246;9.100;2023-12-22T04:42:34;6.40;99.90
14119;DHT22;7138;49.246;9.100;2023-12-22T04:45:00;6.50;99.90
14119;DHT22;7138;49.246;9.100;2023-12-22T04:47:25;6.40;99.90
14119;DHT22;7138;49.246;9.100;2023-12-22T04:49:51;6.50;99.90
14119;DHT22;7138;49.246;9.100;2023-12-22T04:52:17;6.40;99.90
14119;DHT22;7138;49.246;9.100;2023-12-22T04:54:44;6.50;99.90
14119;DHT22;7138;49.246;9.100;2023-12-22T04:57:10;6.50;99.90
14119;DHT22;7138;49.246;9.100;2023-12-22T04:59:36;6.60;99.90
14119;DHT22;7138;49.246;9.100;2023-12-22T05:02:02;6.60;99.90
14119;DHT22;7138;49.246;9.100;2023-12-22T05:04:28;6.70;99.90
14119;DHT22;7138;49.246;9.100;2023-12-22T05:06:54;6.50;99.90
14119;DHT22;7138;49.246;9.100;2023-12-22T05:09:19;6.40;99.90
14119;DHT22;7138;49.246;9.100;2023-12-22T05:11:47;6.50;99.90
14119;DHT22;7138;49.246;9.100;2023-12-22T05:14:12;6.30;99.90
14119;DHT22;7138;49.246;9.100;2023-12-22T05:16:38;6.30;99.90
14119;DHT22;7138;49.246;9.100;2023-12-22T05:19:04;6.30;99.90
14119;DHT22;7138;49.246;9.100;2023-12-22T05:21:30;6.30;99.90
14119;DHT22;7138;49.246;9.100;2023-12-22T05:23:56;6.50;99.90
14119;DHT22;7138;49.246;9.100;2023-12-22T05:26:22;6.50;99.90
14119;DHT22;7138;49.246;9.100;2023-12-22T05:28:50;6.40;99.90
14119;DHT22;7138;49.246;9.100;2023-12-22T05:31:16;6.40;99.90
14119;DHT22;7138;49.246;9.100;2023-12-22T05:33:42;6.50;99.90
14119;DHT22;7138;49.246;9.100;2023-12-22T05:36:09;6.40;99.90
14119;DHT22;7138;49.246;9.100;2023-12-22T05:38:37;6.20;99.90
14119;DHT22;7138;49.246;9.100;2023-12-22T05:41:04;6.00;99.90
14119;DHT22;7138;49.246;9.100;2023-12-22T05:43:30;5.80;99.90
14119;DHT22;7138;49.246;9.100;2023-12-22T05:45:57;5.70;99.90
14119;DHT22;7138;49.246;9.100;2023-12-22T05:48:23;5.60;99.90
14119;DHT22;7138;49.246;9.100;2023-12-22T05:50:49;5.60;99.90
14119;DHT22;7138;49.246;9.100;2023-12-22T05:53:15;5.60;99.90
14119;DHT22;7138;49.246;9.100;2023-12-22T05:55:41;5.60;99.90
14119;DHT22;7138;49.246;9.100;2023-12-22T05:58:07;5.60;99.90
14119;DHT22;7138;49.246;9.100;2023-12-22T06:00:32;5.60;99.90
14119;DHT22;7138;49.246;9.100;2023-12-22T06:03:01;5.60;99.90
14119;DHT22;7138;49.246;9.100;2023-12-22T06:05:27;5.70;99.90
14119;DHT22;7138;49.246;9.100;2023-12-22T06:07:52;5.70;99.90
14119;DHT22;7138;49.246;9.100;2023-12-22T06:10:18;5.70;99.90
14119;DHT22;7138;49.246;9.100;2023-12-22T06:12:44;5.90;99.90
14119;DHT22;7138;49.246;9.100;2023-12-22T06:15:10;5.90;99.90
14119;DHT22;7138;49.246;9.100;2023-12-22T06:17:36;6.00;99.90
14119;DHT22;7138;49.246;9.100;2023-12-22T06:20:04;6.20;99.90
14119;DHT22;7138;49.246;9.100;2023-12-22T06:22:30;6.20;99.90
14119;DHT22;7138;49.246;9.100;2023-12-22T06:24:56;6.30;99.90
14119;DHT22;7138;49.246;9.100;2023-12-22T06:27:22;6.40;99.90
14119;DHT22;7138;49.246;9.100;2023-12-22T06:29:47;6.40;99.90
14119;DHT22;7138;49.246;9.100;2023-12-22T06:32:13;6.50;99.90
14119;DHT22;7138;49.246;9.100;2023-12-22T06:34:39;6.50;99.90
14119;DHT22;7138;49.246;9.100;2023-12-22T06:37:06;6.40;99.90
14119;DHT22;7138;49.246;9.100;2023-12-22T06:39:33;6.50;99.90
14119;DHT22;7138;49.246;9.100;2023-12-22T06:41:59;6.50;99.90
14119;DHT22;7138;49.246;9.100;2023-12-22T06:44:25;6.50;99.90
14119;DHT22;7138;49.246;9.100;2023-12-22T06:46:51;6.40;99.90
14119;DHT22;7138;49.246;9.100;2023-12-22T06:49:18;6.50;99.90
14119;DHT22;7138;49.246;9.100;2023-12-22T06:51:43;6.50;99.90
14119;DHT22;7138;49.246;9.100;2023-12-22T06:54:10;6.50;99.90
14119;DHT22;7138;49.246;9.100;2023-12-22T06:56:36;6.50;99.90
14119;DHT22;7138;49.246;9.100;2023-12-22T06:59:02;6.60;99.90
14119;DHT22;7138;49.246;9.100;2023-12-22T07:01:30;6.60;99.90
14119;DHT22;7138;49.246;9.100;2023-12-22T07:03:58;6.70;99.90
14119;DHT22;7138;49.246;9.100;2023-12-22T07:06:27;6.90;99.90
14119;DHT22;7138;49.246;9.100;2023-12-22T07:11:54;6.90;99.90
14119;DHT22;7138;49.246;9.100;2023-12-22T07:14:21;6.90;99.90
14119;DHT22;7138;49.246;9.100;2023-12-22T07:16:47;7.00;99.90
14119;DHT22;7138;49.246;9.100;2023-12-22T07:19:13;7.00;99.90
14119;DHT22;7138;49.246;9.100;2023-12-22T07:21:39;6.90;99.90
14119;DHT22;7138;49.246;9.100;2023-12-22T07:24:06;6.90;99.90
14119;DHT22;7138;49.246;9.100;2023-12-22T07:26:33;7.00;99.90
14119;DHT22;7138;49.246;9.100;2023-12-22T07:28:59;7.00;99.90
14119;DHT22;7138;49.246;9.100;2023-12-22T07:31:25;7.00;99.90
14119;DHT22;7138;49.246;9.100;2023-12-22T07:33:51;7.10;99.90
14119;DHT22;7138;49.246;9.100;2023-12-22T07:36:18;7.10;99.90
14119;DHT22;7138;49.246;9.100;2023-12-22T07:38:44;7.00;99.90
14119;DHT22;7138;49.246;9.100;2023-12-22T07:41:10;7.00;99.90
14119;DHT22;7138;49.246;9.100;2023-12-22T07:43:37;7.10;99.90
14119;DHT22;7138;49.246;9.100;2023-12-22T07:46:03;6.90;99.90
14119;DHT22;7138;49.246;9.100;2023-12-22T07:48:29;6.90;99.90
14119;DHT22;7138;49.246;9.100;2023-12-22T07:50:55;7.20;99.90
14119;DHT22;7138;49.246;9.100;2023-12-22T07:53:21;7.00;99.90
14119;DHT22;7138;49.246;9.100;2023-12-22T07:55:47;7.10;99.90
14119;DHT22;7138;49.246;9.100;2023-12-22T07:58:13;7.00;99.90
14119;DHT22;7138;49.246;9.100;2023-12-22T08:00:40;6.90;99.90
14119;DHT22;7138;49.246;9.100;2023-12-22T08:03:06;6.90;99.90
14119;DHT22;7138;49.246;9.100;2023-12-22T08:05:32;6.90;99.90
14119;DHT22;7138;49.246;9.100;2023-12-22T08:07:58;6.90;99.90
14119;DHT22;7138;49.246;9.100;2023-12-22T08:10:25;7.00;99.90
14119;DHT22;7138;49.246;9.100;2023-12-22T08:12:52;7.00;99.90
14119;DHT22;7138;49.246;9.100;2023-12-22T08:15:18;7.10;99.90
14119;DHT22;7138;49.246;9.100;2023-12-22T08:17:49;7.00;99.90
14119;DHT22;7138;49.246;9.100;2023-12-22T08:20:17;7.00;99.90
14119;DHT22;7138;49.246;9.100;2023-12-22T08:22:44;7.10;99.90
14119;DHT22;7138;49.246;9.100;2023-12-22T08:25:10;7.00;99.90
14119;DHT22;7138;49.246;9.100;2023-12-22T08:27:36;7.00;99.90
14119;DHT22;7138;49.246;9.100;2023-12-22T08:30:02;7.00;99.90
14119;DHT22;7138;49.246;9.100;2023-12-22T08:32:29;6.90;99.90
14119;DHT22;7138;49.246;9.100;2023-12-22T08:34:56;6.80;99.90
14119;DHT22;7138;49.246;9.100;2023-12-22T08:37:21;6.70;99.90
14119;DHT22;7138;49.246;9.100;2023-12-22T08:39:47;6.70;99.90
14119;DHT22;7138;49.246;9.100;2023-12-22T08:42:14;6.60;99.90
14119;DHT22;7138;49.246;9.100;2023-12-22T08:44:40;6.60;99.90
14119;DHT22;7138;49.246;9.100;2023-12-22T08:47:05;6.60;99.90
14119;DHT22;7138;49.246;9.100;2023-12-22T08:49:31;6.60;99.90
14119;DHT22;7138;49.246;9.100;2023-12-22T08:51:58;6.60;99.90
14119;DHT22;7138;49.246;9.100;2023-12-22T08:54:24;6.50;99.90
14119;DHT22;7138;49.246;9.100;2023-12-22T08:56:50;6.50;99.90
14119;DHT22;7138;49.246;9.100;2023-12-22T08:59:16;6.40;99.90
14119;DHT22;7138;49.246;9.100;2023-12-22T09:01:43;6.40;99.90
14119;DHT22;7138;49.246;9.100;2023-12-22T09:04:10;6.30;99.90
14119;DHT22;7138;49.246;9.100;2023-12-22T09:06:36;6.40;99.90
14119;DHT22;7138;49.246;9.100;2023-12-22T09:09:04;6.30;99.90
14119;DHT22;7138;49.246;9.100;2023-12-22T09:11:30;6.40;99.90
14119;DHT22;7138;49.246;9.100;2023-12-22T09:13:56;6.40;99.90
14119;DHT22;7138;49.246;9.100;2023-12-22T09:16:22;6.40;99.90
14119;DHT22;7138;49.246;9.100;2023-12-22T09:18:48;6.50;99.90
14119;DHT22;7138;49.246;9.100;2023-12-22T09:21:15;6.50;99.90
14119;DHT22;7138;49.246;9.100;2023-12-22T09:23:41;6.50;99.90
14119;DHT22;7138;49.246;9.100;2023-12-22T09:26:12;6.50;99.90
14119;DHT22;7138;49.246;9.100;2023-12-22T09:28:38;6.60;99.90
14119;DHT22;7138;49.246;9.100;2023-12-22T09:31:03;6.50;99.90
14119;DHT22;7138;49.246;9.100;2023-12-22T09:33:30;6.60;99.90
14119;DHT22;7138;49.246;9.100;2023-12-22T09:35:56;6.60;99.90
14119;DHT22;7138;49.246;9.100;2023-12-22T09:38:22;6.60;99.90
14119;DHT22;7138;49.246;9.100;2023-12-22T09:40:49;6.60;99.90
14119;DHT22;7138;49.246;9.100;2023-12-22T09:43:18;6.70;99.90
14119;DHT22;7138;49.246;9.100;2023-12-22T09:45:45;6.70;99.90
14119;DHT22;7138;49.246;9.100;2023-12-22T09:48:12;6.80;99.90
14119;DHT22;7138;49.246;9.100;2023-12-22T09:50:43;6.70;99.90
14119;DHT22;7138;49.246;9.100;2023-12-22T09:53:11;6.80;99.90
14119;DHT22;7138;49.246;9.100;2023-12-22T09:55:39;6.80;99.90
14119;DHT22;7138;49.246;9.100;2023-12-22T09:58:10;6.80;99.90
14119;DHT22;7138;49.246;9.100;2023-12-22T10:00:39;6.80;99.90
14119;DHT22;7138;49.246;9.100;2023-12-22T10:03:06;6.80;99.90
14119;DHT22;7138;49.246;9.100;2023-12-22T10:05:33;6.80;99.90
14119;DHT22;7138;49.246;9.100;2023-12-22T10:08:00;6.90;99.90
14119;DHT22;7138;49.246;9.100;2023-12-22T10:10:27;7.00;99.90
14119;DHT22;7138;49.246;9.100;2023-12-22T10:12:55;7.00;99.90
14119;DHT22;7138;49.246;9.100;2023-12-22T10:15:22;7.10;99.90
14119;DHT22;7138;49.246;9.100;2023-12-22T10:17:53;7.20;99.90
14119;DHT22;7138;49.246;9.100;2023-12-22T10:20:19;7.30;99.90
14119;DHT22;7138;49.246;9.100;2023-12-22T10:22:45;7.20;99.90
14119;DHT22;7138;49.246;9.100;2023-12-22T10:25:15;7.20;99.90
14119;DHT22;7138;49.246;9.100;2023-12-22T10:27:43;7.20;99.90
14119;DHT22;7138;49.246;9.100;2023-12-22T10:30:10;7.30;99.90
14119;DHT22;7138;49.246;9.100;2023-12-22T10:32:40;7.30;99.90
14119;DHT22;7138;49.246;9.100;2023-12-22T10:35:09;7.40;99.90
14119;DHT22;7138;49.246;9.100;2023-12-22T10:37:35;7.40;99.90
14119;DHT22;7138;49.246;9.100;2023-12-22T10:40:04;7.40;99.90
14119;DHT22;7138;49.246;9.100;2023-12-22T10:42:31;7.50;99.90
14119;DHT22;7138;49.246;9.100;2023-12-22T10:44:57;7.40;99.90
14119;DHT22;7138;49.246;9.100;2023-12-22T10:47:23;7.40;99.90
14119;DHT22;7138;49.246;9.100;2023-12-22T10:49:49;7.30;99.90
14119;DHT22;7138;49.246;9.100;2023-12-22T10:52:17;7.40;99.90
14119;DHT22;7138;49.246;9.100;2023-12-22T10:54:43;7.40;99.90
14119;DHT22;7138;49.246;9.100;2023-12-22T10:57:10;7.50;99.90
14119;DHT22;7138;49.246;9.100;2023-12-22T10:59:40;7.40;99.90
14119;DHT22;7138;49.246;9.100;2023-12-22T11:02:15;7.40;99.90
14119;DHT22;7138;49.246;9.100;2023-12-22T11:04:45;7.30;99.90
14119;DHT22;7138;49.246;9.100;2023-12-22T11:07:19;7.30;99.90
14119;DHT22;7138;49.246;9.100;2023-12-22T11:09:51;7.40;99.90
14119;DHT22;7138;49.246;9.100;2023-12-22T11:12:19;7.30;99.90
14119;DHT22;7138;49.246;9.100;2023-12-22T11:14:46;7.30;99.90
14119;DHT22;7138;49.246;9.100;2023-12-22T11:17:18;7.50;99.90
14119;DHT22;7138;49.246;9.100;2023-12-22T11:19:47;7.40;99.90
14119;DHT22;7138;49.246;9.100;2023-12-22T11:22:18;7.40;99.90
14119;DHT22;7138;49.246;9.100;2023-12-22T11:24:46;7.30;99.90
14119;DHT22;7138;49.246;9.100;2023-12-22T11:27:13;7.30;99.90
14119;DHT22;7138;49.246;9.100;2023-12-22T11:29:42;7.30;99.90
14119;DHT22;7138;49.246;9.100;2023-12-22T11:32:11;7.30;99.90
14119;DHT22;7138;49.246;9.100;2023-12-22T11:34:42;7.30;99.90
14119;DHT22;7138;49.246;9.100;2023-12-22T11:37:11;7.30;99.90
14119;DHT22;7138;49.246;9.100;2023-12-22T11:39:40;7.30;99.90
14119;DHT22;7138;49.246;9.100;2023-12-22T11:42:08;7.30;99.90
14119;DHT22;7138;49.246;9.100;2023-12-22T11:44:35;7.30;99.90
14119;DHT22;7138;49.246;9.100;2023-12-22T11:47:07;7.20;99.90
14119;DHT22;7138;49.246;9.100;2023-12-22T11:49:35;7.10;99.90
14119;DHT22;7138;49.246;9.100;2023-12-22T11:52:10;7.10;99.90
14119;DHT22;7138;49.246;9.100;2023-12-22T11:54:48;7.00;99.90
14119;DHT22;7138;49.246;9.100;2023-12-22T11:57:32;7.00;99.90
14119;DHT22;7138;49.246;9.100;2023-12-22T12:00:02;7.00;99.90
14119;DHT22;7138;49.246;9.100;2023-12-22T12:02:35;7.00;99.90
14119;DHT22;7138;49.246;9.100;2023-12-22T12:05:02;7.00;99.90
14119;DHT22;7138;49.246;9.100;2023-12-22T12:07:42;7.00;99.90
14119;DHT22;7138;49.246;9.100;2023-12-22T12:10:12;7.00;99.90
14119;DHT22;7138;49.246;9.100;2023-12-22T12:12:39;7.00;99.90
14119;DHT22;7138;49.246;9.100;2023-12-22T12:15:10;7.10;99.90
14119;DHT22;7138;49.246;9.100;2023-12-22T12:17:42;7.10;99.90
14119;DHT22;7138;49.246;9.100;2023-12-22T12:20:10;7.10;99.90
14119;DHT22;7138;49.246;9.100;2023-12-22T12:22:37;7.10;99.90
14119;DHT22;7138;49.246;9.100;2023-12-22T12:25:07;7.10;99.90
14119;DHT22;7138;49.246;9.100;2023-12-22T12:27:37;7.10;99.90
14119;DHT22;7138;49.246;9.100;2023-12-22T12:30:08;7.20;99.90
14119;DHT22;7138;49.246;9.100;2023-12-22T12:32:38;7.20;99.90
14119;DHT22;7138;49.246;9.100;2023-12-22T12:35:04;7.30;99.90
14119;DHT22;7138;49.246;9.100;2023-12-22T12:37:31;7.30;99.90
14119;DHT22;7138;49.246;9.100;2023-12-22T12:39:58;7.30;99.90
14119;DHT22;7138;49.246;9.100;2023-12-22T12:42:29;7.40;99.90
14119;DHT22;7138;49.246;9.100;2023-12-22T12:44:58;7.40;99.90
14119;DHT22;7138;49.246;9.100;2023-12-22T12:47:23;7.30;99.90
14119;DHT22;7138;49.246;9.100;2023-12-22T12:49:56;7.40;99.90
14119;DHT22;7138;49.246;9.100;2023-12-22T12:52:23;7.40;99.90
14119;DHT22;7138;49.246;9.100;2023-12-22T12:54:50;7.40;99.90
14119;DHT22;7138;49.246;9.100;2023-12-22T12:57:17;7.50;99.90
14119;DHT22;7138;49.246;9.100;2023-12-22T12:59:45;7.50;99.90
14119;DHT22;7138;49.246;9.100;2023-12-22T13:02:14;7.50;99.90
14119;DHT22;7138;49.246;9.100;2023-12-22T13:04:40;7.40;99.90
14119;DHT22;7138;49.246;9.100;2023-12-22T13:07:06;7.60;99.90
14119;DHT22;7138;49.246;9.100;2023-12-22T13:09:33;7.60;99.90
14119;DHT22;7138;49.246;9.100;2023-12-22T13:11:59;7.60;99.90
14119;DHT22;7138;49.246;9.100;2023-12-22T13:14:26;7.60;99.90
14119;DHT22;7138;49.246;9.100;2023-12-22T13:16:53;7.70;99.90
14119;DHT22;7138;49.246;9.100;2023-12-22T13:19:23;7.70;99.90
14119;DHT22;7138;49.246;9.100;2023-12-22T13:21:52;7.70;99.90
14119;DHT22;7138;49.246;9.100;2023-12-22T13:24:19;7.70;99.90
14119;DHT22;7138;49.246;9.100;2023-12-22T13:26:45;7.80;99.90
14119;DHT22;7138;49.246;9.100;2023-12-22T13:29:12;7.80;99.90
14119;DHT22;7138;49.246;9.100;2023-12-22T13:31:39;7.80;99.90
14119;DHT22;7138;49.246;9.100;2023-12-22T13:34:08;7.80;99.90
14119;DHT22;7138;49.246;9.100;2023-12-22T13:36:36;7.80;99.90
14119;DHT22;7138;49.246;9.100;2023-12-22T13:39:03;7.80;99.90
14119;DHT22;7138;49.246;9.100;2023-12-22T13:41:31;7.90;99.90
14119;DHT22;7138;49.246;9.100;2023-12-22T13:44:02;7.90;99.90
14119;DHT22;7138;49.246;9.100;2023-12-22T13:46:30;7.90;99.90
14119;DHT22;7138;49.246;9.100;2023-12-22T13:48:57;8.00;99.90
14119;DHT22;7138;49.246;9.100;2023-12-22T13:51:23;8.00;99.90
14119;DHT22;7138;49.246;9.100;2023-12-22T13:53:51;8.10;99.90
14119;DHT22;7138;49.246;9.100;2023-12-22T13:56:16;8.10;99.90
14119;DHT22;7138;49.246;9.100;2023-12-22T13:58:46;8.10;99.90
14119;DHT22;7138;49.246;9.100;2023-12-22T14:01:13;8.10;99.90
14119;DHT22;7138;49.246;9.100;2023-12-22T14:03:41;8.10;99.90
14119;DHT22;7138;49.246;9.100;2023-12-22T14:06:07;8.10;99.90
14119;DHT22;7138;49.246;9.100;2023-12-22T14:08:34;8.20;99.90
14119;DHT22;7138;49.246;9.100;2023-12-22T14:11:01;8.20;99.90
14119;DHT22;7138;49.246;9.100;2023-12-22T14:13:27;8.30;99.90
14119;DHT22;7138;49.246;9.100;2023-12-22T14:15:53;8.30;99.90
14119;DHT22;7138;49.246;9.100;2023-12-22T14:18:19;8.40;99.90
14119;DHT22;7138;49.246;9.100;2023-12-22T14:20:45;8.30;99.90
14119;DHT22;7138;49.246;9.100;2023-12-22T14:23:11;8.30;99.90
14119;DHT22;7138;49.246;9.100;2023-12-22T14:25:41;8.30;99.90
14119;DHT22;7138;49.246;9.100;2023-12-22T14:28:09;8.30;99.90
14119;DHT22;7138;49.246;9.100;2023-12-22T14:30:34;8.30;99.90
14119;DHT22;7138;49.246;9.100;2023-12-22T14:33:00;8.30;99.90
14119;DHT22;7138;49.246;9.100;2023-12-22T14:35:26;8.30;99.90
14119;DHT22;7138;49.246;9.100;2023-12-22T14:37:52;8.30;99.90
14119;DHT22;7138;49.246;9.100;2023-12-22T14:40:18;8.30;99.90
14119;DHT22;7138;49.246;9.100;2023-12-22T14:42:44;8.40;99.90
14119;DHT22;7138;49.246;9.100;2023-12-22T14:45:11;8.40;99.90
14119;DHT22;7138;49.246;9.100;2023-12-22T14:47:36;8.50;99.90
14119;DHT22;7138;49.246;9.100;2023-12-22T14:50:03;8.50;99.90
14119;DHT22;7138;49.246;9.100;2023-12-22T14:52:29;8.50;99.90
14119;DHT22;7138;49.246;9.100;2023-12-22T14:54:57;8.50;99.90
14119;DHT22;7138;49.246;9.100;2023-12-22T14:57:23;8.50;99.90
14119;DHT22;7138;49.246;9.100;2023-12-22T14:59:49;8.60;99.90
14119;DHT22;7138;49.246;9.100;2023-12-22T15:02:16;8.80;99.90
14119;DHT22;7138;49.246;9.100;2023-12-22T15:04:42;8.70;99.90
14119;DHT22;7138;49.246;9.100;2023-12-22T15:07:07;8.70;99.90
14119;DHT22;7138;49.246;9.100;2023-12-22T15:09:33;8.60;99.90
14119;DHT22;7138;49.246;9.100;2023-12-22T15:12:04;8.70;99.90
14119;DHT22;7138;49.246;9.100;2023-12-22T15:14:30;8.60;99.90
14119;DHT22;7138;49.246;9.100;2023-12-22T15:16:56;8.60;99.90
14119;DHT22;7138;49.246;9.100;2023-12-22T15:19:23;8.60;99.90
14119;DHT22;7138;49.246;9.100;2023-12-22T15:21:49;8.60;99.90
14119;DHT22;7138;49.246;9.100;2023-12-22T15:24:15;8.60;99.90
14119;DHT22;7138;49.246;9.100;2023-12-22T15:26:41;8.60;99.90
14119;DHT22;7138;49.246;9.100;2023-12-22T15:29:08;8.50;99.90
14119;DHT22;7138;49.246;9.100;2023-12-22T15:31:34;8.60;99.90
14119;DHT22;7138;49.246;9.100;2023-12-22T15:34:00;8.60;99.90
14119;DHT22;7138;49.246;9.100;2023-12-22T15:36:28;8.50;99.90
14119;DHT22;7138;49.246;9.100;2023-12-22T15:38:55;8.50;99.90
14119;DHT22;7138;49.246;9.100;2023-12-22T15:41:20;8.50;99.90
14119;DHT22;7138;49.246;9.100;2023-12-22T15:43:46;8.40;99.90
14119;DHT22;7138;49.246;9.100;2023-12-22T15:46:12;8.50;99.90
14119;DHT22;7138;49.246;9.100;2023-12-22T15:48:38;8.50;99.90
14119;DHT22;7138;49.246;9.100;2023-12-22T15:51:07;8.60;99.90
14119;DHT22;7138;49.246;9.100;2023-12-22T15:53:36;8.60;99.90
14119;DHT22;7138;49.246;9.100;2023-12-22T15:56:04;8.60;99.90
14119;DHT22;7138;49.246;9.100;2023-12-22T15:58:30;8.60;99.90
14119;DHT22;7138;49.246;9.100;2023-12-22T16:00:56;8.60;99.90
14119;DHT22;7138;49.246;9.100;2023-12-22T16:03:22;8.70;99.90